createdAt,value
2023-11-01T00:00:40.171Z,11.01
2023-11-01T00:05:42.183Z,10.90
2023-11-01T00:10:43.895Z,10.80
2023-11-01T00:15:45.615Z,10.79
2023-11-01T00:20:47.383Z,10.69
2023-11-01T00:25:49.142Z,10.66
2023-11-01T00:30:50.808Z,10.72
2023-11-01T00:35:52.537Z,10.73
2023-11-01T00:40:54.243Z,10.72
2023-11-01T00:45:55.980Z,10.76
2023-11-01T00:50:57.646Z,10.76
2023-11-01T00:55:59.380Z,10.75
2023-11-01T01:01:01.581Z,10.75
2023-11-01T01:06:04.334Z,10.84
2023-11-01T01:11:06.167Z,10.90
2023-11-01T01:16:08.373Z,10.93
2023-11-01T01:21:10.109Z,11.00
2023-11-01T01:26:11.862Z,11.11
2023-11-01T01:31:13.690Z,11.07
2023-11-01T01:36:15.409Z,11.09
2023-11-01T01:41:17.260Z,11.07
2023-11-01T01:46:19.361Z,11.03
2023-11-01T01:51:22.637Z,11.00
2023-11-01T01:56:25.773Z,10.92
2023-11-01T02:01:39.162Z,10.88
2023-11-01T02:06:46.430Z,10.82
2023-11-01T02:11:48.147Z,10.81
2023-11-01T02:16:51.228Z,10.82
2023-11-01T02:21:52.956Z,10.84
2023-11-01T02:26:54.644Z,10.86
2023-11-01T02:31:56.297Z,10.90
2023-11-01T02:36:57.979Z,10.92
2023-11-01T02:42:00.548Z,10.95
2023-11-01T02:47:02.540Z,10.98
2023-11-01T02:52:04.470Z,11.02
2023-11-01T02:57:06.542Z,11.04
2023-11-01T03:02:08.277Z,11.02
2023-11-01T03:07:09.945Z,11.02
2023-11-01T03:12:11.664Z,11.02
2023-11-01T03:17:13.590Z,11.01
2023-11-01T03:22:15.394Z,11.01
2023-11-01T03:27:17.028Z,11.07
2023-11-01T03:32:19.045Z,11.15
2023-11-01T03:37:20.768Z,11.24
2023-11-01T03:42:23.101Z,11.27
2023-11-01T03:47:25.103Z,11.28
2023-11-01T03:52:27.691Z,11.30
2023-11-01T03:57:29.388Z,11.28
2023-11-01T04:02:31.349Z,11.24
2023-11-01T04:07:33.068Z,11.20
2023-11-01T04:12:34.710Z,11.16
2023-11-01T04:17:36.402Z,11.15
2023-11-01T04:22:38.854Z,11.08
2023-11-01T04:27:43.378Z,11.00
2023-11-01T04:32:45.125Z,10.95
2023-11-01T04:37:46.984Z,10.91
2023-11-01T04:42:49.229Z,10.89
2023-11-01T04:47:51.038Z,10.88
2023-11-01T04:52:53.164Z,10.89
2023-11-01T04:57:54.814Z,10.90
2023-11-01T05:02:56.620Z,10.90
2023-11-01T05:07:58.354Z,10.90
2023-11-01T05:13:00.101Z,10.95
2023-11-01T05:18:01.957Z,10.99
2023-11-01T05:23:03.777Z,11.00
2023-11-01T05:28:05.542Z,10.97
2023-11-01T05:33:07.386Z,10.95
2023-11-01T05:38:09.090Z,10.99
2023-11-01T05:43:10.724Z,11.00
2023-11-01T05:48:12.506Z,10.99
2023-11-01T05:53:14.174Z,11.03
2023-11-01T05:58:15.876Z,11.06
2023-11-01T06:03:17.747Z,11.10
2023-11-01T06:08:19.659Z,11.12
2023-11-01T06:13:22.020Z,11.16
2023-11-01T06:18:23.796Z,11.18
2023-11-01T06:23:26.110Z,11.17
2023-11-01T06:28:27.964Z,11.12
2023-11-01T06:33:29.711Z,11.08
2023-11-01T06:38:31.477Z,11.04
2023-11-01T06:43:33.236Z,10.98
2023-11-01T06:48:35.013Z,10.94
2023-11-01T06:53:36.740Z,10.87
2023-11-01T06:58:38.457Z,10.79
2023-11-01T07:03:40.306Z,10.73
2023-11-01T07:08:44.156Z,10.94
2023-11-01T07:13:46.261Z,11.21
2023-11-01T07:18:47.907Z,11.51
2023-11-01T07:23:49.761Z,11.69
2023-11-01T07:28:51.508Z,11.71
2023-11-01T07:33:53.264Z,11.63
2023-11-01T07:38:55.192Z,11.66
2023-11-01T07:43:56.975Z,11.70
2023-11-01T07:48:58.633Z,11.79
2023-11-01T07:54:00.372Z,11.87
2023-11-01T07:59:02.241Z,11.97
2023-11-01T08:04:04.596Z,12.16
2023-11-01T08:09:06.801Z,12.37
2023-11-01T08:14:09.054Z,12.52
2023-11-01T08:19:11.105Z,12.73
2023-11-01T08:24:12.926Z,12.92
2023-11-01T08:29:14.698Z,13.09
2023-11-01T08:34:16.362Z,13.12
2023-11-01T08:39:18.560Z,13.15
2023-11-01T08:44:20.395Z,13.02
2023-11-01T08:49:22.163Z,12.93
2023-11-01T08:54:26.037Z,12.87
2023-11-01T08:59:27.688Z,12.88
2023-11-01T09:04:29.667Z,12.79
2023-11-01T09:09:31.437Z,13.01
2023-11-01T09:14:33.180Z,13.13
2023-11-01T09:19:35.159Z,13.43
2023-11-01T09:24:36.928Z,13.67
2023-11-01T09:29:38.745Z,13.87
2023-11-01T09:34:41.289Z,14.02
2023-11-01T09:39:43.064Z,14.08
2023-11-01T09:44:47.154Z,14.15
2023-11-01T09:49:49.695Z,14.24
2023-11-01T09:54:51.520Z,14.30
2023-11-01T09:59:54.237Z,14.46
2023-11-01T10:04:56.756Z,14.63
2023-11-01T10:09:58.660Z,14.58
2023-11-01T10:15:02.733Z,14.62
2023-11-01T10:20:04.872Z,14.56
2023-11-01T10:25:08.134Z,14.56
2023-11-01T10:30:10.470Z,14.60
2023-11-01T10:35:15.699Z,14.65
2023-11-01T10:40:17.568Z,14.77
2023-11-01T10:45:19.682Z,14.86
2023-11-01T10:50:21.924Z,15.10
2023-11-01T10:55:25.431Z,15.27
2023-11-01T11:00:34.129Z,15.26
2023-11-01T11:05:41.255Z,15.17
2023-11-01T11:10:44.477Z,15.31
2023-11-01T11:15:49.463Z,15.49
2023-11-01T11:20:56.587Z,15.55
2023-11-01T11:26:00.153Z,15.54
2023-11-01T11:31:30.765Z,15.52
2023-11-01T11:36:32.495Z,15.47
2023-11-01T11:41:37.161Z,15.60
2023-11-01T11:46:50.382Z,15.70
2023-11-01T11:52:04.217Z,15.68
2023-11-01T11:57:12.437Z,15.74
2023-11-01T12:02:17.640Z,15.74
2023-11-01T12:07:19.952Z,15.89
2023-11-01T12:12:22.615Z,15.98
2023-11-01T12:17:24.456Z,15.99
2023-11-01T12:22:26.439Z,15.98
2023-11-01T12:27:32.541Z,16.10
2023-11-01T12:32:39.785Z,16.20
2023-11-01T12:37:43.324Z,16.18
2023-11-01T12:42:52.521Z,16.07
2023-11-01T12:47:54.953Z,15.96
2023-11-01T12:52:57.177Z,15.81
2023-11-01T12:58:03.771Z,15.74
2023-11-01T13:03:05.768Z,15.70
2023-11-01T13:08:07.695Z,15.67
2023-11-01T13:13:09.353Z,15.64
2023-11-01T13:18:11.129Z,15.62
2023-11-01T13:23:13.017Z,15.64
2023-11-01T13:28:14.760Z,15.58
2023-11-01T13:33:16.575Z,15.52
2023-11-01T13:38:18.630Z,15.50
2023-11-01T13:43:20.977Z,15.34
2023-11-01T13:48:23.751Z,15.19
2023-11-01T13:53:25.707Z,15.17
2023-11-01T13:58:28.025Z,15.10
2023-11-01T14:03:30.148Z,15.12
2023-11-01T14:08:31.993Z,15.06
2023-11-01T14:13:33.725Z,15.01
2023-11-01T14:18:35.763Z,14.92
2023-11-01T14:23:40.866Z,14.89
2023-11-01T14:28:42.744Z,14.77
2023-11-01T14:33:44.749Z,14.73
2023-11-01T14:38:46.550Z,14.70
2023-11-01T14:43:48.320Z,14.60
2023-11-01T14:48:50.845Z,14.49
2023-11-01T14:53:52.552Z,14.37
2023-11-01T14:58:55.417Z,14.27
2023-11-01T15:03:57.162Z,14.23
2023-11-01T15:08:58.979Z,14.14
2023-11-01T15:14:01.308Z,14.04
2023-11-01T15:19:03.013Z,13.96
2023-11-01T15:24:06.143Z,13.88
2023-11-01T15:29:08.048Z,13.78
2023-11-01T15:34:09.891Z,13.69
2023-11-01T15:39:13.678Z,13.58
2023-11-01T15:44:15.485Z,13.48
2023-11-01T15:49:17.340Z,13.43
2023-11-01T15:54:19.316Z,13.34
2023-11-01T15:59:21.018Z,13.25
2023-11-01T16:04:23.145Z,13.22
2023-11-01T16:09:25.046Z,13.18
2023-11-01T16:14:28.230Z,13.10
2023-11-01T16:19:30.065Z,13.00
2023-11-01T16:24:31.936Z,12.93
2023-11-01T16:29:33.638Z,12.87
2023-11-01T16:34:35.451Z,12.84
2023-11-01T16:39:37.773Z,12.82
2023-11-01T16:44:48.138Z,12.77
2023-11-01T16:49:50.437Z,12.68
2023-11-01T16:54:56.450Z,12.60
2023-11-01T16:59:58.291Z,12.58
2023-11-01T17:05:00.175Z,12.53
2023-11-01T17:10:01.924Z,12.53
2023-11-01T17:15:05.391Z,12.45
2023-11-01T17:20:08.800Z,12.44
2023-11-01T17:25:32.486Z,12.46
2023-11-01T17:30:37.483Z,12.44
2023-11-01T17:35:41.587Z,12.40
2023-11-01T17:40:45.465Z,12.33
2023-11-01T17:45:48.118Z,12.26
2023-11-01T17:50:50.671Z,12.24
2023-11-01T17:55:52.442Z,12.16
2023-11-01T18:00:54.307Z,12.12
2023-11-01T18:05:56.258Z,12.03
2023-11-01T18:10:59.033Z,11.97
2023-11-01T18:16:06.010Z,11.95
2023-11-01T18:21:26.303Z,12.02
2023-11-01T18:26:29.553Z,11.98
2023-11-01T18:31:32.069Z,12.07
2023-11-01T18:36:44.929Z,12.08
2023-11-01T18:41:47.234Z,12.06
2023-11-01T18:46:48.962Z,11.96
2023-11-01T18:51:57.708Z,11.80
2023-11-01T18:56:59.415Z,11.72
2023-11-01T19:02:01.858Z,11.63
2023-11-01T19:07:05.729Z,11.50
2023-11-01T19:12:07.681Z,11.38
2023-11-01T19:17:09.558Z,11.25
2023-11-01T19:22:11.370Z,11.16
2023-11-01T19:27:18.418Z,11.17
2023-11-01T19:32:26.006Z,11.22
2023-11-01T19:37:27.862Z,11.27
2023-11-01T19:42:33.599Z,11.32
2023-11-01T19:47:37.500Z,11.29
2023-11-01T19:52:39.543Z,11.29
2023-11-01T19:57:41.250Z,11.28
2023-11-01T20:02:43.511Z,11.26
2023-11-01T20:07:45.402Z,11.16
2023-11-01T20:12:47.505Z,11.07
2023-11-01T20:17:49.568Z,11.02
2023-11-01T20:22:52.485Z,10.96
2023-11-01T20:27:54.457Z,10.92
2023-11-01T20:32:56.395Z,10.90
2023-11-01T20:37:58.207Z,10.93
2023-11-01T20:42:59.971Z,10.99
2023-11-01T20:48:01.971Z,11.04
2023-11-01T20:53:03.777Z,11.09
2023-11-01T20:58:07.244Z,11.07
2023-11-01T21:03:09.119Z,11.05
2023-11-01T21:08:10.863Z,10.96
2023-11-01T21:13:12.569Z,10.87
2023-11-01T21:18:14.427Z,10.83
2023-11-01T21:23:16.398Z,10.79
2023-11-01T21:28:18.199Z,10.78
2023-11-01T21:33:22.648Z,10.81
2023-11-01T21:38:25.222Z,10.81
2023-11-01T21:43:27.279Z,10.82
2023-11-01T21:48:30.713Z,10.85
2023-11-01T21:53:35.038Z,10.86
2023-11-01T21:58:37.155Z,10.94
2023-11-01T22:03:50.279Z,11.07
2023-11-01T22:08:55.155Z,11.11
2023-11-01T22:13:58.907Z,11.13
2023-11-01T22:19:02.541Z,11.12
2023-11-01T22:24:08.249Z,11.16
2023-11-01T22:29:12.754Z,11.14
2023-11-01T22:34:14.606Z,11.07
2023-11-01T22:39:33.161Z,11.04
2023-11-01T22:44:34.901Z,10.97
2023-11-01T22:49:36.992Z,11.05
2023-11-01T22:54:39.595Z,11.08
2023-11-01T22:59:44.727Z,11.15
2023-11-01T23:04:46.414Z,11.18
2023-11-01T23:09:48.572Z,11.19
2023-11-01T23:14:50.392Z,11.19
2023-11-01T23:19:52.335Z,11.18
2023-11-01T23:24:54.006Z,11.14
2023-11-01T23:29:55.730Z,11.11
2023-11-01T23:34:58.343Z,11.03
2023-11-01T23:40:00.573Z,10.98
2023-11-01T23:45:28.556Z,10.92
2023-11-01T23:50:34.974Z,10.88
2023-11-01T23:55:40.179Z,10.83
